Time;durP1;ratioP1;P1;durP2;ratioP2;P2;SDS_P1;SDS_P2;PMS_P1;PMS_P2;Temp;Humidity;BMP_temperature;BMP_pressure;BME280_temperature;BME280_humidity;BME280_pressure;Samples;Min_cycle;Max_cycle;Signal;HPM_P1;HPM_P2
2022/08/04 00:00:12;;;;;;;10.73;6.50;;;;;;;15.25;100.00;95147.00;5067878;28;20443;-72
2022/08/04 00:02:50;;;;;;;8.95;5.75;;;;;;;15.13;100.00;95138.53;5063926;28;20468;-71
2022/08/04 00:05:41;;;;;;;9.80;5.47;;;;;;;15.14;100.00;95147.97;5081270;28;20047;-72
2022/08/04 00:08:29;;;;;;;9.18;5.75;;;;;;;14.98;100.00;95145.25;5079166;28;20043;-72
2022/08/04 00:10:59;;;;;;;7.55;6.25;;;;;;;14.91;100.00;95155.16;5082319;28;20528;-71
2022/08/04 00:13:29;;;;;;;7.07;5.60;;;;;;;14.89;100.00;95146.72;5080871;28;20055;-72
2022/08/04 00:16:04;;;;;;;11.70;5.70;;;;;;;14.83;100.00;95147.72;5082726;28;20158;-71
2022/08/04 00:18:51;;;;;;;8.45;5.80;;;;;;;14.76;100.00;95141.91;5084453;28;20032;-71
2022/08/04 00:21:23;;;;;;;10.20;6.43;;;;;;;14.74;100.00;95143.97;5065711;28;20044;-71
2022/08/04 00:23:51;;;;;;;8.40;5.50;;;;;;;14.72;100.00;95152.09;5084972;28;20044;-71
2022/08/04 00:26:39;;;;;;;9.70;5.55;;;;;;;14.64;100.00;95150.72;5068540;28;20536;-71
2022/08/04 00:29:06;;;;;;;7.85;5.95;;;;;;;14.58;100.00;95146.47;5051335;28;20047;-71
2022/08/04 00:31:33;;;;;;;7.80;5.85;;;;;;;14.56;100.00;95148.50;5066973;28;20044;-71
2022/08/04 00:34:23;;;;;;;6.43;5.50;;;;;;;14.54;100.00;95155.84;5074381;28;20116;-71
2022/08/04 00:36:52;;;;;;;5.90;5.22;;;;;;;14.53;100.00;95154.22;5063804;28;20044;-71
2022/08/04 00:39:20;;;;;;;7.80;6.18;;;;;;;14.54;100.00;95153.22;5086681;28;20041;-71
2022/08/04 00:41:49;;;;;;;8.48;5.68;;;;;;;14.59;100.00;95158.53;5087059;28;20534;-71
2022/08/04 00:44:48;;;;;;;9.80;5.22;;;;;;;14.60;100.00;95149.63;5088505;28;20119;-71
2022/08/04 00:47:24;;;;;;;7.18;4.95;;;;;;;14.66;100.00;95164.38;5057141;28;20044;-71
2022/08/04 00:50:03;;;;;;;6.05;5.03;;;;;;;14.56;100.00;95143.25;5072816;28;20040;-71
2022/08/04 00:52:46;;;;;;;5.57;5.07;;;;;;;14.69;100.00;95169.13;5088116;28;20046;-71
2022/08/04 00:55:30;;;;;;;5.97;5.03;;;;;;;14.65;100.00;95167.22;5089597;28;20054;-71
2022/08/04 00:58:10;;;;;;;7.75;4.97;;;;;;;14.61;100.00;95161.69;5069300;28;21006;-71
2022/08/04 01:00:52;;;;;;;8.30;5.20;;;;;;;14.63;100.00;95164.84;5052526;28;20047;-70
2022/08/04 01:03:45;;;;;;;6.90;5.72;;;;;;;14.64;100.00;95158.59;5066171;28;20898;-71
2022/08/04 01:06:40;;;;;;;6.28;5.38;;;;;;;14.66;100.00;95164.38;5065146;28;20050;-72
2022/08/04 01:09:24;;;;;;;7.32;6.03;;;;;;;14.60;100.00;95157.47;5079835;28;20055;-71
2022/08/04 01:12:08;;;;;;;7.82;5.82;;;;;;;14.61;100.00;95160.91;5067298;28;20133;-71
2022/08/04 01:14:55;;;;;;;5.45;4.88;;;;;;;14.50;100.00;95149.50;5066252;28;20052;-70
2022/08/04 01:17:35;;;;;;;7.78;5.22;;;;;;;14.57;100.00;95149.28;5086289;28;20043;-71
2022/08/04 01:20:07;;;;;;;8.00;5.75;;;;;;;14.57;100.00;95150.09;5078873;28;20034;-71
2022/08/04 01:23:03;;;;;;;6.47;5.00;;;;;;;14.56;100.00;95152.97;5065076;28;20048;-71
2022/08/04 01:26:07;;;;;;;13.43;5.28;;;;;;;14.61;100.00;95161.69;5053796;28;20135;-71
2022/08/04 01:29:10;;;;;;;6.68;5.55;;;;;;;14.63;100.00;95164.84;5082872;28;20044;-71
2022/08/04 01:31:50;;;;;;;8.15;5.25;;;;;;;14.60;100.00;95159.31;5086665;28;20167;-71
2022/08/04 01:34:20;;;;;;;6.05;5.22;;;;;;;14.59;100.00;95157.75;5067686;28;21044;-71
2022/08/04 01:37:01;;;;;;;7.30;5.45;;;;;;;14.57;100.00;95150.09;5082128;28;20040;-69
2022/08/04 01:39:39;;;;;;;6.65;5.70;;;;;;;14.48;100.00;95146.34;5087729;28;20036;-70
2022/08/04 01:42:08;;;;;;;6.22;4.50;;;;;;;14.55;100.00;95157.44;5083763;28;20122;-70
2022/08/04 01:44:37;;;;;;;6.60;5.43;;;;;;;14.52;100.00;95152.66;5092159;28;20036;-69
2022/08/04 01:47:05;;;;;;;7.18;5.20;;;;;;;14.45;100.00;95136.34;5083180;28;20039;-71
2022/08/04 01:49:32;;;;;;;6.88;5.35;;;;;;;14.56;100.00;95147.72;5092456;28;20038;-70
2022/08/04 01:52:08;;;;;;;15.82;5.68;;;;;;;14.52;100.00;95148.22;5064770;28;20146;-70
2022/08/04 01:54:41;;;;;;;6.13;5.20;;;;;;;14.61;100.00;95156.44;5085654;28;20036;-71
2022/08/04 01:57:11;;;;;;;7.25;5.20;;;;;;;14.63;100.00;95154.38;5103428;27;20101;-70
2022/08/04 01:59:59;;;;;;;6.75;5.68;;;;;;;14.64;100.00;95160.41;5067319;28;20043;-71
2022/08/04 02:02:26;;;;;;;5.72;4.80;;;;;;;14.63;100.00;95158.84;5065587;28;20791;-71
2022/08/04 02:04:53;;;;;;;7.60;5.15;;;;;;;14.64;100.00;95161.22;5084884;28;20051;-71
2022/08/04 02:07:41;;;;;;;5.90;5.15;;;;;;;14.66;100.00;95159.13;5088278;28;20036;-70
2022/08/04 02:10:20;;;;;;;7.03;4.90;;;;;;;14.56;100.00;95164.22;5086265;28;20036;-71
2022/08/04 02:13:05;;;;;;;9.40;5.20;;;;;;;14.49;100.00;95153.94;5085823;28;20039;-70
2022/08/04 02:15:40;;;;;;;6.75;5.07;;;;;;;14.47;100.00;95155.25;5089875;28;20181;-70
2022/08/04 02:19:06;;;;;;;10.70;5.75;;;;;;;14.45;100.00;95159.94;5086405;28;20513;-70
2022/08/04 02:21:40;;;;;;;8.35;5.25;;;;;;;14.32;100.00;95158.50;5024351;28;20051;-70
2022/08/04 02:24:21;;;;;;;7.65;5.40;;;;;;;14.31;100.00;95162.94;5086908;28;20059;-70
2022/08/04 02:26:52;;;;;;;6.97;5.72;;;;;;;14.15;100.00;95148.09;5069070;28;20044;-71
2022/08/04 02:29:25;;;;;;;6.65;5.65;;;;;;;14.19;100.00;95154.44;5083478;28;20742;-71
2022/08/04 02:32:05;;;;;;;7.30;6.00;;;;;;;14.15;100.00;95155.94;5089069;28;20032;-71
2022/08/04 02:35:14;;;;;;;9.85;5.65;;;;;;;14.04;100.00;95156.88;5085381;28;20059;-71
2022/08/04 02:37:46;;;;;;;13.10;6.57;;;;;;;13.98;100.00;95160.47;5073754;28;20048;-71
2022/08/04 02:40:20;;;;;;;13.32;5.93;;;;;;;13.89;100.00;95153.03;5093660;28;20040;-72
2022/08/04 02:42:49;;;;;;;8.48;5.90;;;;;;;13.85;100.00;95154.56;5077961;28;20923;-71
2022/08/04 02:45:19;;;;;;;8.43;6.03;;;;;;;13.81;100.00;95153.47;5087029;28;20124;-72
2022/08/04 02:47:49;;;;;;;10.88;6.53;;;;;;;13.80;100.00;95157.09;5093779;28;20059;-71
2022/08/04 02:50:38;;;;;;;8.27;5.50;;;;;;;13.83;100.00;95161.88;5085153;28;20039;-71
2022/08/04 02:53:09;;;;;;;9.50;6.10;;;;;;;13.82;100.00;95152.41;5068408;28;20051;-71
2022/08/04 02:55:40;;;;;;;9.52;6.38;;;;;;;13.88;100.00;95156.69;5064790;28;20942;-71
2022/08/04 02:58:19;;;;;;;12.23;6.45;;;;;;;13.89;100.00;95150.41;5069895;28;20043;-71
2022/08/04 03:00:49;;;;;;;7.78;5.45;;;;;;;13.80;100.00;95140.63;5085639;28;20043;-71
2022/08/04 03:03:25;;;;;;;7.63;6.22;;;;;;;13.83;100.00;95155.81;5089340;28;20044;-72
2022/08/04 03:05:55;;;;;;;9.38;6.80;;;;;;;13.75;100.00;95155.22;5090241;28;20050;-72
2022/08/04 03:08:49;;;;;;;9.23;6.30;;;;;;;13.75;100.00;95152.59;5089302;28;20527;-72
2022/08/04 03:11:31;;;;;;;8.45;6.13;;;;;;;13.72;100.00;95149.66;5066197;28;20756;-71
2022/08/04 03:14:09;;;;;;;10.32;6.13;;;;;;;13.62;100.00;95154.78;5082051;28;20040;-72
2022/08/04 03:16:55;;;;;;;7.05;5.75;;;;;;;13.52;100.00;95140.53;5081066;28;20386;-72
2022/08/04 03:19:27;;;;;;;7.85;6.32;;;;;;;13.45;100.00;95158.22;5087466;28;20113;-72
2022/08/04 03:22:10;;;;;;;10.57;6.75;;;;;;;13.40;100.00;95163.38;5088013;28;20048;-72
2022/08/04 03:25:11;;;;;;;9.52;6.03;;;;;;;13.43;100.00;95162.09;5067574;28;20079;-71
2022/08/04 03:27:44;;;;;;;9.25;7.03;;;;;;;13.44;100.00;95169.72;5085884;28;20047;-72
2022/08/04 03:30:14;;;;;;;9.73;7.05;;;;;;;13.43;100.00;95157.66;5071073;28;20044;-71
2022/08/04 03:32:49;;;;;;;9.20;7.50;;;;;;;13.48;100.00;95162.19;5082932;28;20141;-71
2022/08/04 03:35:38;;;;;;;8.48;6.55;;;;;;;13.49;100.00;95167.19;5089261;28;20086;-72
2022/08/04 03:38:16;;;;;;;8.73;6.22;;;;;;;13.43;100.00;95147.19;5084177;28;20048;-71
2022/08/04 03:41:07;;;;;;;10.77;7.95;;;;;;;13.61;100.00;95168.88;5093125;28;20051;-71
2022/08/04 03:43:59;;;;;;;13.50;7.30;;;;;;;13.69;100.00;95156.19;5082098;28;20040;-71
2022/08/04 03:46:40;;;;;;;11.02;7.72;;;;;;;13.77;100.00;95163.63;5088043;28;20051;-71
2022/08/04 03:49:12;;;;;;;8.57;6.70;;;;;;;13.85;100.00;95164.25;5079786;28;20044;-70
2022/08/04 03:55:10;;;;;;;9.52;5.93;;;;;;;13.92;100.00;95160.41;5086157;27;20056;-70
2022/08/04 03:57:58;;;;;;;9.55;6.78;;;;;;;13.92;100.00;95165.66;5085542;28;20054;-71
2022/08/04 04:00:49;;;;;;;7.63;6.22;;;;;;;13.95;100.00;95173.03;5079744;28;20448;-70
2022/08/04 04:03:32;;;;;;;9.43;6.15;;;;;;;13.99;100.00;95169.91;5083453;28;21411;-71
2022/08/04 04:06:19;;;;;;;12.23;7.10;;;;;;;14.05;100.00;95174.19;5082548;28;20048;-71
2022/08/04 04:09:04;;;;;;;8.00;6.43;;;;;;;14.12;100.00;95174.78;5089656;28;20460;-71
2022/08/04 04:12:13;;;;;;;9.13;6.60;;;;;;;14.12;100.00;95169.53;5077918;28;20045;-71
2022/08/04 04:15:27;;;;;;;15.82;7.45;;;;;;;14.23;100.00;95171.22;5078815;28;20130;-71
2022/08/04 04:18:13;;;;;;;10.68;8.00;;;;;;;14.43;100.00;95165.41;5044925;28;20044;-70
2022/08/04 04:20:41;;;;;;;9.40;7.70;;;;;;;14.62;100.00;95173.78;5066153;28;20082;-71
2022/08/04 04:23:38;;;;;;;9.95;7.28;;;;;;;14.81;100.00;95166.34;5081865;28;20105;-71
2022/08/04 04:26:23;;;;;;;8.90;6.18;;;;;;;14.99;100.00;95165.16;5079926;28;20134;-71
2022/08/04 04:28:59;;;;;;;12.70;7.68;;;;;;;15.19;100.00;95167.16;5066272;28;20132;-71
2022/08/04 04:31:34;;;;;;;11.13;7.35;;;;;;;15.39;100.00;95170.97;5059107;28;21596;-71
2022/08/04 04:34:07;;;;;;;8.73;6.88;;;;;;;15.62;100.00;95175.06;5084030;28;20048;-71
2022/08/04 04:36:48;;;;;;;11.48;7.22;;;;;;;15.81;100.00;95171.00;5078016;28;20537;-70
2022/08/04 04:40:01;;;;;;;13.80;6.70;;;;;;;16.00;100.00;95170.56;5076079;28;20051;-71
2022/08/04 04:42:32;;;;;;;9.88;6.70;;;;;;;16.24;100.00;95171.69;5070069;28;20047;-72
2022/08/04 04:45:23;;;;;;;11.60;7.20;;;;;;;16.46;100.00;95175.97;5093725;28;20052;-72
2022/08/04 04:48:08;;;;;;;8.48;6.90;;;;;;;16.67;100.00;95178.63;5085795;28;20455;-72
2022/08/04 04:50:54;;;;;;;9.43;7.32;;;;;;;16.87;100.00;95178.72;5083342;28;20044;-73
2022/08/04 04:53:41;;;;;;;9.05;7.03;;;;;;;17.04;100.00;95177.66;5085066;28;20040;-71
2022/08/04 04:56:17;;;;;;;9.38;7.65;;;;;;;17.23;100.00;95176.06;5080310;28;20036;-70
2022/08/04 04:58:44;;;;;;;10.95;7.22;;;;;;;17.44;100.00;95181.34;5066333;28;20456;-73
2022/08/04 05:01:58;;;;;;;10.75;7.30;;;;;;;17.61;100.00;95181.84;5063177;28;20503;-72
2022/08/04 05:04:25;;;;;;;11.45;7.53;;;;;;;17.82;100.00;95181.78;5046387;28;20051;-73
2022/08/04 05:07:27;;;;;;;11.40;8.40;;;;;;;18.01;100.00;95184.66;5082705;28;20730;-73
2022/08/04 05:10:26;;;;;;;9.30;7.40;;;;;;;18.23;100.00;95185.09;5062312;28;20047;-73
2022/08/04 05:13:18;;;;;;;9.30;6.90;;;;;;;18.44;100.00;95192.91;5089350;28;20256;-73
2022/08/04 05:16:34;;;;;;;8.43;6.72;;;;;;;18.61;100.00;95188.06;5084750;28;20053;-73
2022/08/04 05:19:27;;;;;;;9.65;6.40;;;;;;;18.78;100.00;95197.47;5059896;28;20043;-73
2022/08/04 05:22:06;;;;;;;14.18;7.05;;;;;;;18.86;100.00;95200.34;5079906;28;20732;-73
2022/08/04 05:24:43;;;;;;;8.05;6.65;;;;;;;18.78;100.00;95202.75;5083348;28;20055;-73
2022/08/04 05:27:25;;;;;;;8.90;7.13;;;;;;;18.75;100.00;95198.81;5066414;28;20044;-73
2022/08/04 05:29:56;;;;;;;11.48;6.57;;;;;;;18.67;100.00;95202.00;5077659;28;20047;-73
2022/08/04 05:32:28;;;;;;;9.82;6.80;;;;;;;18.76;100.00;95194.31;5071263;28;20048;-73
2022/08/04 05:35:03;;;;;;;10.80;6.90;;;;;;;18.91;100.00;95197.69;5086665;28;20036;-73
2022/08/04 05:37:33;;;;;;;8.77;7.43;;;;;;;18.95;100.00;95197.16;5067157;28;20074;-74
2022/08/04 05:40:05;;;;;;;9.38;7.40;;;;;;;19.06;100.00;95188.09;5089871;28;20032;-74
2022/08/04 05:42:38;;;;;;;9.40;7.85;;;;;;;19.27;100.00;95197.41;5066827;28;20139;-74
2022/08/04 05:45:07;;;;;;;8.05;6.95;;;;;;;19.39;100.00;95188.34;5070430;28;20639;-74
2022/08/04 05:47:36;;;;;;;9.38;6.38;;;;;;;19.53;100.00;95199.06;5086893;28;20590;-74
2022/08/04 05:50:05;;;;;;;11.55;6.82;;;;;;;19.56;100.00;95207.22;5089555;28;20047;-74
2022/08/04 05:52:35;;;;;;;9.35;6.70;;;;;;;19.61;100.00;95204.53;5068840;28;20035;-74
2022/08/04 05:55:03;;;;;;;10.38;7.07;;;;;;;19.61;100.00;95203.75;5088834;28;20028;-74
2022/08/04 05:57:32;;;;;;;7.95;6.13;;;;;;;19.51;100.00;95194.03;5090105;28;21587;-74
2022/08/04 06:00:04;;;;;;;8.27;6.50;;;;;;;19.50;100.00;95192.50;5090501;28;20039;-74
2022/08/04 06:02:52;;;;;;;22.70;6.57;;;;;;;19.54;100.00;95200.66;5074810;28;20067;-73
2022/08/04 06:05:20;;;;;;;9.88;6.43;;;;;;;19.63;100.00;95197.09;5084477;28;20122;-73
2022/08/04 06:07:47;;;;;;;25.30;7.90;;;;;;;19.67;100.00;95206.03;5084990;28;20040;-73
2022/08/04 06:10:37;;;;;;;14.70;6.00;;;;;;;19.80;100.00;95207.25;5089968;28;20506;-73
2022/08/04 06:13:11;;;;;;;9.25;7.20;;;;;;;19.82;100.00;95204.34;5068123;28;20051;-73
2022/08/04 06:16:00;;;;;;;13.05;7.47;;;;;;;19.82;100.00;95199.06;5090454;28;20082;-73
2022/08/04 06:18:29;;;;;;;10.60;7.50;;;;;;;19.97;100.00;95208.69;5094354;28;20039;-73
2022/08/04 06:21:19;;;;;;;8.57;6.93;;;;;;;20.07;100.00;95216.50;5089140;28;20537;-73
2022/08/04 06:23:48;;;;;;;9.27;7.70;;;;;;;20.12;100.00;95213.81;5086931;28;20047;-73
2022/08/04 06:26:25;;;;;;;8.60;6.97;;;;;;;20.21;100.00;95206.84;5083388;28;20042;-73
2022/08/04 06:28:53;;;;;;;11.23;7.70;;;;;;;20.34;99.91;95205.34;5083099;28;20048;-73
2022/08/04 06:34:28;;;;;;;8.50;7.03;;;;;;;20.83;95.57;95205.28;5089017;28;20062;-73
2022/08/04 06:36:57;;;;;;;9.88;8.15;;;;;;;20.99;96.38;95209.28;5085130;28;20090;-69
2022/08/04 06:39:26;;;;;;;10.45;8.05;;;;;;;21.09;94.87;95211.78;5085871;28;20685;-69
2022/08/04 06:41:54;;;;;;;16.73;7.45;;;;;;;21.19;94.21;95209.00;5094767;28;20039;-70
2022/08/04 06:44:47;;;;;;;10.98;7.25;;;;;;;21.42;94.16;95211.81;5066084;28;20059;-69
2022/08/04 06:47:20;;;;;;;8.88;7.30;;;;;;;21.34;93.24;95197.38;5070683;28;20050;-74
2022/08/04 06:49:50;;;;;;;9.48;7.10;;;;;;;21.56;93.60;95217.97;5065299;28;20042;-74
2022/08/04 06:52:38;;;;;;;8.70;7.32;;;;;;;21.60;94.57;95222.69;5065507;28;20046;-74
2022/08/04 06:55:06;;;;;;;9.43;6.63;;;;;;;21.64;94.59;95228.97;5063387;28;20176;-74
2022/08/04 06:57:35;;;;;;;8.38;6.25;;;;;;;21.65;92.83;95225.25;5069761;28;20043;-71
2022/08/04 07:00:09;;;;;;;8.48;6.78;;;;;;;21.70;93.46;95217.22;5085125;28;20052;-71
2022/08/04 07:02:47;;;;;;;;;;;;;;;21.76;92.99;95226.66;5085146;28;20047;-71
2022/08/04 07:05:15;;;;;;;10.23;6.57;;;;;;;21.47;91.44;95214.41;5077331;28;19965;-71
2022/08/04 07:07:44;;;;;;;11.15;6.82;;;;;;;21.83;91.90;95220.97;5067451;28;20044;-71
2022/08/04 07:10:28;;;;;;;15.00;7.35;;;;;;;22.11;89.87;95216.44;5084820;28;20032;-71
2022/08/04 07:12:59;;;;;;;11.25;6.70;;;;;;;22.31;88.22;95210.78;5085064;28;20740;-71
2022/08/04 07:15:28;;;;;;;17.75;6.32;;;;;;;22.53;87.85;95219.91;5069873;28;20054;-71
2022/08/04 07:17:58;;;;;;;9.13;6.10;;;;;;;22.85;85.62;95218.16;5064433;28;20067;-71
2022/08/04 07:20:28;;;;;;;11.32;6.50;;;;;;;22.95;85.98;95202.00;5075090;28;20144;-71
2022/08/04 07:23:05;;;;;;;12.43;6.65;;;;;;;23.08;82.89;95219.81;5086249;28;20047;-71
2022/08/04 07:25:36;;;;;;;8.40;6.13;;;;;;;23.32;77.08;95221.41;5093481;28;20039;-71
2022/08/04 07:28:26;;;;;;;6.45;5.72;;;;;;;23.54;74.74;95211.84;5063046;28;20733;-74
2022/08/04 07:30:55;;;;;;;8.85;7.13;;;;;;;23.63;76.38;95204.69;5064482;28;20047;-74
2022/08/04 07:33:23;;;;;;;7.90;6.07;;;;;;;23.84;76.99;95216.41;5068684;28;20036;-73
2022/08/04 07:35:55;;;;;;;12.30;6.40;;;;;;;23.96;74.38;95212.38;5072013;28;20051;-73
2022/08/04 07:38:41;;;;;;;11.55;6.07;;;;;;;23.96;75.01;95197.19;5072164;28;20052;-74
2022/08/04 07:41:22;;;;;;;10.70;6.03;;;;;;;24.01;74.02;95204.28;5092965;28;20088;-74
2022/08/04 07:44:06;;;;;;;9.30;6.22;;;;;;;23.89;74.91;95206.72;5088151;28;20063;-73
2022/08/04 07:46:34;;;;;;;17.55;7.93;;;;;;;23.92;76.86;95206.13;5089640;28;20039;-73
2022/08/04 07:49:02;;;;;;;15.10;7.07;;;;;;;23.97;76.63;95209.44;5063693;28;20091;-73
2022/08/04 07:51:29;;;;;;;14.77;6.22;;;;;;;24.02;75.12;95201.31;5066434;28;20047;-73
2022/08/04 07:53:59;;;;;;;9.68;5.60;;;;;;;24.05;74.62;95210.53;5083990;28;20733;-73
2022/08/04 07:56:27;;;;;;;11.43;5.50;;;;;;;23.83;72.59;95209.50;5082620;28;20102;-73
2022/08/04 07:58:55;;;;;;;8.30;5.20;;;;;;;23.63;74.13;95215.34;5062551;28;20121;-73
2022/08/04 08:01:23;;;;;;;10.40;5.55;;;;;;;23.58;76.05;95210.13;5073033;28;20804;-73
2022/08/04 08:03:52;;;;;;;5.93;4.35;;;;;;;23.61;73.62;95212.19;5089260;27;20047;-73
2022/08/04 08:06:20;;;;;;;8.93;5.18;;;;;;;23.66;74.51;95198.78;5064097;28;21001;-72
2022/08/04 08:09:00;;;;;;;11.77;5.80;;;;;;;23.78;75.05;95204.28;5082484;27;20086;-72
2022/08/04 08:11:45;;;;;;;8.15;5.53;;;;;;;23.89;74.36;95196.09;5064699;28;20044;-73
2022/08/04 08:14:34;;;;;;;7.07;5.22;;;;;;;24.33;70.46;95211.13;5066211;28;20036;-73
2022/08/04 08:17:02;;;;;;;5.80;5.25;;;;;;;24.72;70.04;95203.38;5082138;28;20169;-72
2022/08/04 08:19:30;;;;;;;18.67;5.85;;;;;;;24.78;69.92;95204.81;5083248;28;20051;-73
2022/08/04 08:21:58;;;;;;;9.60;4.70;;;;;;;24.88;69.89;95214.38;5063419;28;20063;-76
2022/08/04 08:24:34;;;;;;;6.15;4.70;;;;;;;25.27;67.98;95199.34;5051675;28;20134;-75
2022/08/04 08:27:05;;;;;;;7.60;4.45;;;;;;;25.67;66.83;95205.22;5085121;28;20040;-76
2022/08/04 08:29:34;;;;;;;6.07;4.28;;;;;;;25.69;64.49;95203.00;5088700;28;20039;-76
2022/08/04 08:32:03;;;;;;;5.93;5.13;;;;;;;25.94;65.73;95205.97;5068987;28;20155;-66
2022/08/04 08:34:36;;;;;;;4.93;4.10;;;;;;;26.22;59.18;95226.91;5088894;28;20043;-69
2022/08/04 08:37:32;;;;;;;8.20;4.20;;;;;;;26.56;61.64;95225.13;5085447;28;20035;-69
2022/08/04 08:40:20;;;;;;;5.15;3.83;;;;;;;26.46;59.58;95226.31;5072675;28;20977;-75
2022/08/04 08:43:18;;;;;;;5.90;4.13;;;;;;;26.66;57.32;95219.44;5085442;28;20124;-71
2022/08/04 08:46:36;;;;;;;9.65;4.30;;;;;;;26.55;57.56;95227.03;5085400;28;20070;-71
2022/08/04 08:49:15;;;;;;;7.43;3.65;;;;;;;26.48;55.69;95219.53;5082583;28;20244;-69
2022/08/04 08:52:08;;;;;;;4.07;3.40;;;;;;;26.44;56.95;95215.16;5086677;28;20043;-69
2022/08/04 08:55:12;;;;;;;7.25;4.05;;;;;;;26.71;54.71;95221.94;5063070;28;20043;-69
2022/08/04 08:57:49;;;;;;;9.82;3.88;;;;;;;27.00;55.31;95212.31;5081840;28;20039;-69
2022/08/04 09:00:41;;;;;;;9.68;3.78;;;;;;;27.54;52.39;95215.00;5084001;28;20035;-69
2022/08/04 09:03:42;;;;;;;16.85;4.30;;;;;;;28.18;50.46;95205.66;5081809;28;20051;-68
2022/08/04 09:06:21;;;;;;;13.73;5.13;;;;;;;28.80;47.84;95213.66;5069839;28;20048;-69
2022/08/04 09:09:03;;;;;;;20.73;4.70;;;;;;;29.28;47.24;95211.19;5069356;28;20058;-69
2022/08/04 09:11:41;;;;;;;4.95;3.25;;;;;;;29.07;44.76;95216.72;5076376;28;20042;-69
2022/08/04 09:14:24;;;;;;;5.70;2.65;;;;;;;29.40;39.91;95208.47;5088554;28;20067;-69
2022/08/04 09:17:01;;;;;;;7.75;3.00;;;;;;;29.38;42.79;95210.72;5088021;28;20062;-69
2022/08/04 09:19:41;;;;;;;12.30;3.97;;;;;;;29.30;44.26;95209.75;5097799;28;20039;-69
2022/08/04 09:22:20;;;;;;;6.78;3.78;;;;;;;29.50;42.99;95209.88;5099462;28;20047;-69
2022/08/04 09:24:58;;;;;;;3.35;3.03;;;;;;;29.17;43.10;95210.91;5096849;28;20055;-69
2022/08/04 09:27:39;;;;;;;8.07;3.55;;;;;;;29.22;45.92;95201.84;5094932;28;20508;-69
2022/08/04 09:30:08;;;;;;;10.20;4.30;;;;;;;29.30;46.37;95207.06;5096093;28;20041;-66
2022/08/04 09:32:37;;;;;;;5.72;3.78;;;;;;;29.32;45.02;95206.72;5099046;28;20044;-68
2022/08/04 09:35:36;;;;;;;5.60;3.67;;;;;;;29.10;45.67;95210.66;5089759;28;20028;-68
2022/08/04 09:38:28;;;;;;;7.90;4.30;;;;;;;29.09;44.39;95209.91;5092448;28;20048;-68
2022/08/04 09:41:02;;;;;;;6.53;4.13;;;;;;;28.62;46.28;95213.13;5067258;28;20074;-69
2022/08/04 09:43:55;;;;;;;6.07;3.55;;;;;;;28.61;44.64;95216.94;5090991;28;20128;-68
2022/08/04 09:46:51;;;;;;;5.47;3.40;;;;;;;28.71;43.66;95213.78;5088559;28;20035;-68
2022/08/04 09:49:35;;;;;;;4.90;3.58;;;;;;;28.66;44.08;95219.38;5089672;28;20051;-68
2022/08/04 09:52:31;;;;;;;8.30;3.40;;;;;;;28.77;42.62;95209.78;5068553;28;20038;-68
2022/08/04 09:55:08;;;;;;;9.10;3.30;;;;;;;28.96;42.49;95211.84;5088820;28;20052;-68
2022/08/04 09:58:01;;;;;;;6.30;2.97;;;;;;;28.98;43.55;95208.81;5087827;28;20444;-68
2022/08/04 10:00:35;;;;;;;5.88;4.63;;;;;;;29.03;44.02;95195.19;5082076;28;20070;-68
2022/08/04 10:03:10;;;;;;;8.13;3.55;;;;;;;29.30;44.70;95211.66;5091403;28;20048;-68
2022/08/04 10:06:07;;;;;;;3.40;3.00;;;;;;;29.40;44.03;95197.72;5069988;28;20047;-68
2022/08/04 10:09:00;;;;;;;6.15;3.75;;;;;;;29.46;44.44;95201.75;5065012;28;20058;-68
2022/08/04 10:11:36;;;;;;;3.58;3.15;;;;;;;29.74;41.30;95200.91;5089059;28;20031;-68
2022/08/04 10:14:33;;;;;;;5.50;3.53;;;;;;;29.47;40.17;95197.94;5082962;28;20044;-66
2022/08/04 10:17:33;;;;;;;4.25;3.10;;;;;;;29.83;40.14;95198.88;5084942;28;20048;-66
2022/08/04 10:20:06;;;;;;;5.72;3.75;;;;;;;30.12;41.37;95194.19;5083631;28;20051;-66
2022/08/04 10:22:38;;;;;;;5.90;3.47;;;;;;;30.71;39.40;95197.09;5085691;28;20536;-66
2022/08/04 10:25:40;;;;;;;7.15;5.00;;;;;;;30.96;38.70;95193.03;5088017;28;20055;-67
2022/08/04 10:28:30;;;;;;;4.50;3.67;;;;;;;31.28;38.57;95187.53;5087320;28;20039;-67
2022/08/04 10:31:03;;;;;;;7.85;3.72;;;;;;;31.06;40.53;95192.47;5082807;28;20051;-68
2022/08/04 10:33:32;;;;;;;;;;;;;;;31.02;39.09;95186.22;5089757;28;20156;-67
2022/08/04 10:36:03;;;;;;;8.55;3.15;;;;;;;31.34;37.42;95191.47;5081800;28;19927;-67
2022/08/04 10:38:39;;;;;;;3.97;2.95;;;;;;;31.25;34.94;95172.06;5091704;28;20047;-67
2022/08/04 10:41:16;;;;;;;11.27;3.15;;;;;;;31.25;35.80;95186.31;5086597;28;20036;-67
2022/08/04 10:43:57;;;;;;;4.50;3.50;;;;;;;30.85;36.72;95186.63;5083239;28;20857;-67
2022/08/04 10:46:33;;;;;;;6.05;3.45;;;;;;;30.88;36.27;95191.28;5078548;28;20036;-67
2022/08/04 10:49:08;;;;;;;4.88;2.90;;;;;;;30.40;36.92;95182.59;5087847;28;20055;-67
2022/08/04 10:52:21;;;;;;;10.70;3.28;;;;;;;30.40;39.14;95177.22;5098913;27;20067;-67
2022/08/04 10:54:56;;;;;;;4.53;2.83;;;;;;;30.13;37.34;95173.50;5086589;28;20048;-67
2022/08/04 10:57:39;;;;;;;6.05;2.95;;;;;;;29.79;37.54;95175.75;5088365;28;20048;-69
2022/08/04 11:00:18;;;;;;;3.63;2.97;;;;;;;29.64;38.90;95179.94;5065968;28;20055;-67
2022/08/04 11:03:00;;;;;;;11.25;2.60;;;;;;;29.49;39.79;95174.22;5082286;28;20077;-77
2022/08/04 11:05:38;;;;;;;3.75;3.35;;;;;;;29.40;40.46;95178.97;5075509;28;20138;-70
2022/08/04 11:08:30;;;;;;;10.52;4.35;;;;;;;29.25;39.97;95171.66;5084631;28;20142;-70
2022/08/04 11:11:08;;;;;;;5.93;3.72;;;;;;;29.15;39.47;95181.75;5084683;28;20050;-70
2022/08/04 11:13:48;;;;;;;13.27;4.25;;;;;;;29.09;39.46;95177.72;5082357;28;20070;-70
2022/08/04 11:16:21;;;;;;;6.38;3.03;;;;;;;29.01;38.57;95167.94;5079926;28;20051;-70
2022/08/04 11:19:30;;;;;;;4.45;2.85;;;;;;;29.04;36.87;95169.16;5078454;28;20052;-71
2022/08/04 11:22:25;;;;;;;6.97;2.38;;;;;;;29.05;34.83;95160.75;5063121;28;20584;-71
2022/08/04 11:25:16;;;;;;;3.33;2.60;;;;;;;29.01;34.14;95162.56;5079074;28;20046;-74
2022/08/04 11:27:58;;;;;;;3.47;2.63;;;;;;;29.11;33.88;95163.97;5076310;28;20051;-74
2022/08/04 11:30:34;;;;;;;3.25;2.42;;;;;;;29.06;33.49;95143.53;5070617;28;20067;-74
2022/08/04 11:33:26;;;;;;;3.55;2.58;;;;;;;29.12;33.77;95142.19;5079374;27;20048;-75
2022/08/04 11:35:59;;;;;;;8.85;3.60;;;;;;;29.28;34.09;95142.25;5062388;28;20040;-76
2022/08/04 11:38:41;;;;;;;;;;;;;;;29.52;34.24;95146.69;5058602;28;20043;-74
2022/08/04 11:41:16;;;;;;;5.60;2.35;;;;;;;29.80;33.29;95156.63;5086993;28;20838;-72
2022/08/04 11:44:00;;;;;;;8.43;4.60;;;;;;;30.18;33.55;95155.22;5068095;28;20412;-70
2022/08/04 11:46:41;;;;;;;5.22;2.72;;;;;;;30.41;32.61;95146.53;5082883;28;20049;-70
2022/08/04 11:49:33;;;;;;;2.35;2.15;;;;;;;30.81;32.22;95142.75;5077441;28;20033;-70
2022/08/04 11:52:21;;;;;;;3.88;2.42;;;;;;;31.89;30.19;95144.75;5069073;28;20032;-70
2022/08/04 11:54:50;;;;;;;3.97;2.53;;;;;;;32.88;29.83;95139.28;5064400;28;20625;-77
2022/08/04 11:57:22;;;;;;;2.97;2.30;;;;;;;33.46;28.21;95129.13;5081373;28;20082;-73
2022/08/04 12:00:03;;;;;;;2.40;2.08;;;;;;;33.54;28.09;95136.13;5078475;28;20055;-73
2022/08/04 12:02:46;;;;;;;4.65;2.80;;;;;;;34.04;27.55;95135.81;5089961;28;20130;-71
2022/08/04 12:05:18;;;;;;;3.33;2.55;;;;;;;33.96;27.51;95139.59;5082536;28;20055;-71
2022/08/04 12:08:35;;;;;;;2.45;2.25;;;;;;;33.60;28.10;95134.66;5085521;28;20042;-71
2022/08/04 12:11:39;;;;;;;3.17;2.50;;;;;;;33.75;27.70;95140.22;5068961;28;20028;-71
2022/08/04 12:14:25;;;;;;;2.38;2.17;;;;;;;33.40;27.89;95138.69;5073601;28;20040;-71
2022/08/04 12:17:00;;;;;;;3.03;2.17;;;;;;;33.30;27.70;95132.81;5068968;28;20055;-72
2022/08/04 12:19:55;;;;;;;2.42;2.22;;;;;;;32.47;29.08;95131.03;5073448;28;20413;-70
2022/08/04 12:22:49;;;;;;;7.75;2.63;;;;;;;32.44;28.50;95126.34;5084783;28;20028;-70
2022/08/04 12:25:39;;;;;;;4.97;2.60;;;;;;;32.43;29.18;95130.19;5071876;28;21521;-70
2022/08/04 12:28:20;;;;;;;2.80;2.50;;;;;;;31.85;29.92;95123.16;5069963;28;20683;-70
2022/08/04 12:30:55;;;;;;;2.60;2.20;;;;;;;31.86;30.22;95123.94;5098092;28;20036;-68
2022/08/04 12:33:43;;;;;;;2.53;2.33;;;;;;;31.59;29.75;95121.19;5100969;28;20143;-70